createdAt,value
2023-04-18T00:03:57.100Z,70.33
2023-04-18T00:09:00.864Z,70.27
2023-04-18T00:14:04.750Z,70.47
2023-04-18T00:19:09.401Z,70.44
2023-04-18T00:24:13.503Z,69.78
2023-04-18T00:29:17.377Z,69.08
2023-04-18T00:34:21.167Z,69.35
2023-04-18T00:39:24.859Z,69.32
2023-04-18T00:59:12.253Z,70.72
2023-04-18T01:09:45.718Z,70.94
2023-04-18T01:15:15.058Z,70.24
2023-04-18T01:20:49.682Z,70.88
2023-04-18T01:25:53.390Z,71.08
2023-04-18T01:34:55.094Z,71.51
2023-04-18T01:39:58.790Z,71.78
2023-04-18T01:59:32.576Z,72.65
2023-04-18T02:23:53.634Z,71.51
2023-04-18T02:29:48.393Z,71.36
2023-04-18T02:34:52.024Z,71.50
2023-04-18T02:39:55.917Z,70.63
2023-04-18T02:44:59.615Z,71.06
2023-04-18T02:50:04.620Z,70.96
2023-04-18T02:55:08.706Z,71.38
2023-04-18T03:00:37.633Z,70.59
2023-04-18T03:05:41.457Z,70.83
2023-04-18T03:10:45.185Z,70.99
2023-04-18T03:24:27.276Z,70.88
2023-04-18T03:29:31.475Z,71.05
2023-04-18T03:53:44.423Z,71.42
2023-04-18T03:59:38.938Z,71.65
2023-04-18T04:04:58.231Z,71.97
2023-04-18T04:10:02.302Z,71.72
2023-04-18T04:15:07.045Z,72.12
2023-04-18T04:20:11.661Z,72.60
2023-04-18T04:25:17.693Z,72.54
2023-04-18T04:30:22.162Z,72.77
2023-04-18T04:35:26.872Z,72.48
2023-04-18T04:40:30.887Z,71.85
2023-04-18T04:45:35.048Z,72.09
2023-04-18T04:50:42.726Z,72.01
2023-04-18T04:55:48.499Z,71.71
2023-04-18T05:00:53.405Z,72.27
2023-04-18T05:13:18.734Z,71.62
2023-04-18T05:18:22.720Z,71.79
2023-04-18T05:30:48.394Z,71.68
2023-04-18T05:36:32.732Z,71.20
2023-04-18T05:41:36.667Z,71.23
2023-04-18T05:46:40.795Z,71.10
2023-04-18T05:53:10.567Z,71.53
2023-04-18T05:58:26.658Z,71.23
2023-04-18T06:18:39.451Z,70.68
2023-04-18T06:23:49.470Z,70.85
2023-04-18T06:29:18.583Z,70.73
2023-04-18T06:34:22.105Z,70.76
2023-04-18T06:41:07.738Z,70.38
2023-04-18T06:54:11.873Z,68.20
2023-04-18T07:01:12.874Z,67.12
2023-04-18T07:06:17.641Z,66.62
2023-04-18T07:20:13.062Z,64.12
2023-04-18T07:25:18.703Z,61.19
2023-04-18T07:30:22.630Z,58.67
2023-04-18T07:36:16.432Z,62.34
2023-04-18T07:48:28.683Z,60.61
2023-04-18T07:54:25.667Z,62.00
2023-04-18T08:00:20.589Z,59.73
2023-04-18T08:06:55.953Z,58.55
2023-04-18T08:13:18.342Z,61.02
2023-04-18T08:26:51.006Z,62.05
2023-04-18T08:32:24.632Z,58.62
2023-04-18T08:44:38.361Z,59.24
2023-04-18T08:49:44.260Z,58.53
2023-04-18T08:54:49.569Z,57.41
2023-04-18T08:59:54.480Z,55.59
2023-04-18T09:04:58.256Z,54.39
2023-04-18T09:10:34.869Z,54.11
2023-04-18T09:15:38.868Z,52.43
2023-04-18T09:20:43.160Z,51.37
2023-04-18T09:26:42.539Z,51.39
2023-04-18T09:47:56.199Z,48.73
2023-04-18T09:53:26.218Z,47.48
2023-04-18T09:58:34.786Z,46.86
2023-04-18T10:11:11.124Z,45.28
2023-04-18T10:16:17.256Z,46.79
2023-04-18T10:22:12.845Z,45.42
2023-04-18T10:28:39.124Z,44.12
2023-04-18T10:40:51.397Z,43.61
2023-04-18T10:46:31.608Z,42.87
2023-04-18T10:51:36.537Z,43.57
2023-04-18T10:56:40.956Z,43.96
2023-04-18T11:02:30.658Z,43.22
2023-04-18T11:15:40.539Z,40.86
2023-04-18T11:28:07.014Z,41.73
2023-04-18T11:34:33.328Z,42.49
2023-04-18T11:40:59.203Z,42.56
2023-04-18T11:46:03.114Z,42.99
2023-04-18T11:51:57.989Z,40.97
2023-04-18T11:57:02.983Z,41.33
2023-04-18T12:09:27.156Z,42.14
2023-04-18T12:21:20.349Z,42.98
2023-04-18T12:27:54.009Z,43.22
2023-04-18T12:33:22.848Z,43.36
2023-04-18T12:38:27.445Z,44.04
2023-04-18T12:44:48.516Z,44.33
2023-04-18T12:49:52.976Z,45.20
2023-04-18T12:55:26.366Z,44.61
2023-04-18T13:00:34.165Z,44.65
2023-04-18T13:05:40.795Z,44.80
2023-04-18T13:10:46.070Z,44.00
2023-04-18T13:15:51.937Z,41.70
2023-04-18T13:20:56.949Z,41.89
2023-04-18T13:26:02.695Z,43.28
2023-04-18T13:31:07.509Z,44.56
2023-04-18T13:36:11.939Z,45.69
2023-04-18T13:41:21.017Z,46.72
2023-04-18T13:46:26.925Z,47.58
2023-04-18T13:52:21.497Z,48.73
2023-04-18T13:57:52.464Z,50.15
2023-04-18T14:02:58.152Z,51.25
2023-04-18T14:08:07.041Z,52.24
2023-04-18T14:13:47.130Z,53.03
2023-04-18T14:19:42.043Z,53.61
2023-04-18T14:25:47.629Z,54.21
2023-04-18T14:30:52.778Z,53.91
2023-04-18T14:35:57.119Z,53.22
2023-04-18T14:41:02.273Z,53.23
2023-04-18T14:54:56.678Z,54.22
2023-04-18T15:12:01.582Z,55.79
2023-04-18T15:24:33.954Z,56.57
2023-04-18T15:45:30.614Z,58.32
2023-04-18T15:50:34.451Z,58.83
2023-04-18T16:03:47.396Z,59.48
2023-04-18T16:08:51.449Z,59.75
2023-04-18T16:13:56.524Z,59.92
2023-04-18T16:19:01.784Z,60.04
2023-04-18T16:24:06.478Z,60.17
2023-04-18T16:29:12.420Z,60.53
2023-04-18T16:34:18.132Z,60.78
2023-04-18T16:39:24.261Z,61.00
2023-04-18T16:44:31.170Z,61.22
2023-04-18T16:49:36.555Z,61.66
2023-04-18T16:54:41.908Z,62.03
2023-04-18T16:59:46.202Z,63.21
2023-04-18T17:12:18.322Z,60.11
2023-04-18T17:17:24.132Z,58.49
2023-04-18T17:22:28.274Z,60.49
2023-04-18T17:27:35.033Z,61.48
2023-04-18T17:32:46.322Z,62.29
2023-04-18T17:37:53.232Z,62.40
2023-04-18T17:43:15.317Z,60.26
2023-04-18T17:48:21.738Z,59.48
2023-04-18T17:53:27.567Z,61.03
2023-04-18T17:58:32.418Z,62.56
2023-04-18T18:03:39.533Z,62.27
2023-04-18T18:09:13.288Z,61.25
2023-04-18T18:14:17.925Z,61.14
2023-04-18T18:34:22.446Z,60.91
2023-04-18T18:39:53.016Z,61.90
2023-04-18T18:44:57.008Z,63.45
2023-04-18T18:51:28.543Z,62.63
2023-04-18T18:56:32.898Z,61.72
2023-04-18T19:10:06.793Z,61.64
2023-04-18T19:15:12.141Z,60.96
2023-04-18T19:21:06.215Z,61.72
2023-04-18T19:27:31.516Z,60.59
2023-04-18T19:40:28.636Z,60.15
2023-04-18T20:00:55.757Z,62.56
2023-04-18T20:13:03.614Z,60.27
2023-04-18T20:19:47.863Z,60.15
2023-04-18T20:42:19.661Z,62.12
2023-04-18T20:48:14.054Z,62.74
2023-04-18T20:54:02.662Z,61.56
2023-04-18T20:59:08.845Z,61.09
2023-04-18T21:12:28.033Z,60.67
2023-04-18T21:26:01.926Z,60.39
2023-04-18T21:31:06.209Z,60.52
2023-04-18T21:43:28.480Z,60.90
2023-04-18T21:48:32.199Z,61.17
2023-04-18T21:55:12.914Z,61.06
2023-04-18T22:00:17.451Z,61.23
2023-04-18T22:05:21.593Z,61.72
2023-04-18T22:10:25.806Z,61.76
2023-04-18T22:15:30.507Z,61.70
2023-04-18T22:21:00.147Z,61.87
2023-04-18T22:26:04.014Z,62.14
2023-04-18T22:31:07.955Z,62.36
2023-04-18T22:36:11.810Z,61.32
2023-04-18T22:41:15.657Z,61.11
2023-04-18T22:46:19.799Z,61.20
2023-04-18T22:51:50.259Z,61.47
2023-04-18T22:57:50.416Z,61.58
2023-04-18T23:03:19.724Z,60.82
2023-04-18T23:09:03.700Z,60.44
2023-04-18T23:29:08.435Z,60.60
2023-04-18T23:51:55.869Z,64.01
2023-04-18T23:56:59.831Z,64.43
